sensor_id;sensor_type;location;lat;lon;timestamp;temperature;humidity
21121;DHT22;12519;43.318;21.898;2022-08-21T18:03:45;24.9;87.0
21121;DHT22;12519;43.318;21.898;2022-08-21T18:08:25;24.9;87.0
21121;DHT22;12519;43.318;21.898;2022-08-21T18:13:16;24.9;87.0
21121;DHT22;12519;43.318;21.898;2022-08-21T18:18:01;24.9;87.0
21121;DHT22;12519;43.318;21.898;2022-08-21T18:22:43;25.0;87.0
21121;DHT22;12519;43.318;21.898;2022-08-21T18:27:22;25.0;87.0
21121;DHT22;12519;43.318;21.898;2022-08-21T18:32:04;25.2;86.0
21121;DHT22;12519;43.318;21.898;2022-08-21T18:36:43;25.2;86.0
21121;DHT22;12519;43.318;21.898;2022-08-21T18:41:21;25.2;86.0
21121;DHT22;12519;43.318;21.898;2022-08-21T18:46:00;25.2;86.0
21121;DHT22;12519;43.318;21.898;2022-08-21T18:50:42;25.3;86.0
21121;DHT22;12519;43.318;21.898;2022-08-21T18:55:25;25.3;86.0
21121;DHT22;12519;43.318;21.898;2022-08-21T19:00:17;25.4;85.0
21121;DHT22;12519;43.318;21.898;2022-08-21T19:05:00;25.4;85.0
21121;DHT22;12519;43.318;21.898;2022-08-21T19:09:36;25.4;85.0
21121;DHT22;12519;43.318;21.898;2022-08-21T19:14:14;25.4;85.0
21121;DHT22;12519;43.318;21.898;2022-08-21T19:18:51;25.4;85.0
21121;DHT22;12519;43.318;21.898;2022-08-21T19:23:28;25.4;85.0
21121;DHT22;12519;43.318;21.898;2022-08-21T19:28:12;25.4;85.0
21121;DHT22;12519;43.318;21.898;2022-08-21T19:33:00;25.4;85.0
21121;DHT22;12519;43.318;21.898;2022-08-21T19:37:38;25.4;85.0
21121;DHT22;12519;43.318;21.898;2022-08-21T19:42:16;24.8;85.0
21121;DHT22;12519;43.318;21.898;2022-08-21T19:46:57;24.8;85.0
21121;DHT22;12519;43.318;21.898;2022-08-21T19:51:38;24.3;86.0
21121;DHT22;12519;43.318;21.898;2022-08-21T19:56:26;24.3;86.0
21121;DHT22;12519;43.318;21.898;2022-08-21T20:01:10;24.0;87.0
21121;DHT22;12519;43.318;21.898;2022-08-21T20:05:50;24.0;87.0
21121;DHT22;12519;43.318;21.898;2022-08-21T20:10:27;23.6;88.0
21121;DHT22;12519;43.318;21.898;2022-08-21T20:15:07;23.6;88.0
21121;DHT22;12519;43.318;21.898;2022-08-21T20:19:47;23.6;88.0
21121;DHT22;12519;43.318;21.898;2022-08-21T20:24:25;23.3;89.0
21121;DHT22;12519;43.318;21.898;2022-08-21T20:29:05;23.3;89.0
21121;DHT22;12519;43.318;21.898;2022-08-21T20:33:43;23.0;90.0
21121;DHT22;12519;43.318;21.898;2022-08-21T20:38:21;23.0;90.0
21121;DHT22;12519;43.318;21.898;2022-08-21T20:43:02;23.0;91.0
21121;DHT22;12519;43.318;21.898;2022-08-21T20:47:43;23.0;91.0
21121;DHT22;12519;43.318;21.898;2022-08-21T20:52:25;22.9;91.0
21121;DHT22;12519;43.318;21.898;2022-08-21T20:57:21;22.9;91.0
21121;DHT22;12519;43.318;21.898;2022-08-21T21:02:49;23.1;90.0
21121;DHT22;12519;43.318;21.898;2022-08-21T21:08:20;23.1;90.0
21121;DHT22;12519;43.318;21.898;2022-08-21T21:13:32;23.3;90.0
21121;DHT22;12519;43.318;21.898;2022-08-21T21:18:48;23.3;90.0
21121;DHT22;12519;43.318;21.898;2022-08-21T21:24:10;23.1;90.0
21121;DHT22;12519;43.318;21.898;2022-08-21T21:29:44;23.1;90.0
21121;DHT22;12519;43.318;21.898;2022-08-21T21:34:47;22.9;91.0
21121;DHT22;12519;43.318;21.898;2022-08-21T21:39:36;22.9;91.0
21121;DHT22;12519;43.318;21.898;2022-08-21T21:45:20;22.7;92.0
21121;DHT22;12519;43.318;21.898;2022-08-21T21:50:52;22.5;92.0
21121;DHT22;12519;43.318;21.898;2022-08-21T21:56:05;22.5;92.0
21121;DHT22;12519;43.318;21.898;2022-08-21T22:01:17;23.0;92.0
21121;DHT22;12519;43.318;21.898;2022-08-21T22:06:30;23.0;92.0
21121;DHT22;12519;43.318;21.898;2022-08-21T22:11:44;23.6;92.0
21121;DHT22;12519;43.318;21.898;2022-08-21T22:16:49;23.6;92.0
21121;DHT22;12519;43.318;21.898;2022-08-21T22:21:36;24.0;90.0
21121;DHT22;12519;43.318;21.898;2022-08-21T22:26:37;24.0;90.0
21121;DHT22;12519;43.318;21.898;2022-08-21T22:31:36;24.5;88.0
21121;DHT22;12519;43.318;21.898;2022-08-21T22:36:19;24.5;88.0
21121;DHT22;12519;43.318;21.898;2022-08-21T22:41:16;24.6;88.0
21121;DHT22;12519;43.318;21.898;2022-08-21T22:46:23;24.6;88.0
21121;DHT22;12519;43.318;21.898;2022-08-21T22:51:30;24.6;88.0
21121;DHT22;12519;43.318;21.898;2022-08-21T22:56:36;24.6;88.0
21121;DHT22;12519;43.318;21.898;2022-08-21T23:01:42;24.6;87.0
21121;DHT22;12519;43.318;21.898;2022-08-21T23:06:43;24.6;87.0
21121;DHT22;12519;43.318;21.898;2022-08-21T23:11:41;24.6;87.0
21121;DHT22;12519;43.318;21.898;2022-08-21T23:16:38;24.6;87.0
21121;DHT22;12519;43.318;21.898;2022-08-21T23:22:08;24.6;87.0
21121;DHT22;12519;43.318;21.898;2022-08-21T23:28:08;24.6;87.0
21121;DHT22;12519;43.318;21.898;2022-08-21T23:34:26;24.7;87.0
21121;DHT22;12519;43.318;21.898;2022-08-21T23:40:13;24.7;87.0
21121;DHT22;12519;43.318;21.898;2022-08-21T23:45:37;24.5;87.0
21121;DHT22;12519;43.318;21.898;2022-08-21T23:51:35;24.4;87.0
21121;DHT22;12519;43.318;21.898;2022-08-21T23:57:37;24.4;87.0
